sensor_id;sensor_type;location;lat;lon;timestamp;P1;durP1;ratioP1;P2;durP2;ratioP2
22983;SDS011;11658;48.908;9.140;2023-05-08T03:01:53;14.10;;;12.60;;
22983;SDS011;11658;48.908;9.140;2023-05-08T03:04:30;13.63;;;12.43;;
22983;SDS011;11658;48.908;9.140;2023-05-08T03:07:00;14.70;;;13.30;;
22983;SDS011;11658;48.908;9.140;2023-05-08T03:09:27;15.30;;;13.70;;
22983;SDS011;11658;48.908;9.140;2023-05-08T03:12:05;13.43;;;12.13;;
22983;SDS011;11658;48.908;9.140;2023-05-08T03:14:36;14.37;;;12.93;;
22983;SDS011;11658;48.908;9.140;2023-05-08T03:17:08;15.40;;;13.80;;
22983;SDS011;11658;48.908;9.140;2023-05-08T03:19:37;13.83;;;12.43;;
22983;SDS011;11658;48.908;9.140;2023-05-08T03:22:05;15.03;;;13.53;;
22983;SDS011;11658;48.908;9.140;2023-05-08T03:24:33;14.03;;;12.73;;
22983;SDS011;11658;48.908;9.140;2023-05-08T03:27:01;14.17;;;12.87;;
22983;SDS011;11658;48.908;9.140;2023-05-08T03:29:28;14.00;;;12.67;;
22983;SDS011;11658;48.908;9.140;2023-05-08T03:31:55;13.83;;;12.33;;
22983;SDS011;11658;48.908;9.140;2023-05-08T03:34:24;13.10;;;11.83;;
22983;SDS011;11658;48.908;9.140;2023-05-08T03:36:51;10.07;;;9.07;;
22983;SDS011;11658;48.908;9.140;2023-05-08T03:39:17;9.37;;;8.47;;
22983;SDS011;11658;48.908;9.140;2023-05-08T03:41:43;9.37;;;8.47;;
22983;SDS011;11658;48.908;9.140;2023-05-08T03:44:09;8.57;;;7.80;;
22983;SDS011;11658;48.908;9.140;2023-05-08T03:46:36;8.53;;;7.63;;
22983;SDS011;11658;48.908;9.140;2023-05-08T03:49:05;7.80;;;7.20;;
22983;SDS011;11658;48.908;9.140;2023-05-08T03:51:32;7.20;;;6.60;;
22983;SDS011;11658;48.908;9.140;2023-05-08T03:54:01;8.80;;;7.77;;
22983;SDS011;11658;48.908;9.140;2023-05-08T03:56:26;9.20;;;7.80;;
22983;SDS011;11658;48.908;9.140;2023-05-08T03:58:56;7.63;;;6.93;;
22983;SDS011;11658;48.908;9.140;2023-05-08T04:04:18;7.93;;;7.13;;
22983;SDS011;11658;48.908;9.140;2023-05-08T04:12:02;12.93;;;11.73;;
22983;SDS011;11658;48.908;9.140;2023-05-08T04:14:36;13.20;;;11.43;;
22983;SDS011;11658;48.908;9.140;2023-05-08T04:17:13;9.33;;;8.33;;
22983;SDS011;11658;48.908;9.140;2023-05-08T04:19:59;7.27;;;6.57;;
22983;SDS011;11658;48.908;9.140;2023-05-08T04:22:27;6.93;;;6.33;;
22983;SDS011;11658;48.908;9.140;2023-05-08T04:24:56;6.30;;;5.83;;
22983;SDS011;11658;48.908;9.140;2023-05-08T04:27:24;7.93;;;7.23;;
22983;SDS011;11658;48.908;9.140;2023-05-08T04:29:50;7.93;;;7.20;;
22983;SDS011;11658;48.908;9.140;2023-05-08T04:32:15;7.13;;;6.43;;
22983;SDS011;11658;48.908;9.140;2023-05-08T04:34:41;7.20;;;6.03;;
22983;SDS011;11658;48.908;9.140;2023-05-08T04:37:07;7.83;;;6.50;;
22983;SDS011;11658;48.908;9.140;2023-05-08T04:39:33;7.03;;;6.33;;
22983;SDS011;11658;48.908;9.140;2023-05-08T04:41:58;7.63;;;7.00;;
22983;SDS011;11658;48.908;9.140;2023-05-08T04:44:27;6.83;;;6.23;;
22983;SDS011;11658;48.908;9.140;2023-05-08T04:46:53;7.00;;;6.33;;
22983;SDS011;11658;48.908;9.140;2023-05-08T04:49:19;7.00;;;6.30;;
22983;SDS011;11658;48.908;9.140;2023-05-08T04:51:44;6.30;;;5.80;;
22983;SDS011;11658;48.908;9.140;2023-05-08T04:54:10;7.00;;;6.30;;
22983;SDS011;11658;48.908;9.140;2023-05-08T04:56:36;6.90;;;6.30;;
22983;SDS011;11658;48.908;9.140;2023-05-08T04:59:01;6.63;;;6.03;;
22983;SDS011;11658;48.908;9.140;2023-05-08T05:01:27;7.60;;;6.90;;
22983;SDS011;11658;48.908;9.140;2023-05-08T05:03:52;8.40;;;7.60;;
22983;SDS011;11658;48.908;9.140;2023-05-08T05:06:18;7.37;;;6.63;;
22983;SDS011;11658;48.908;9.140;2023-05-08T05:08:44;7.17;;;6.57;;
22983;SDS011;11658;48.908;9.140;2023-05-08T05:11:09;8.17;;;7.13;;
22983;SDS011;11658;48.908;9.140;2023-05-08T05:13:35;6.83;;;6.23;;
22983;SDS011;11658;48.908;9.140;2023-05-08T05:16:01;7.10;;;6.40;;
22983;SDS011;11658;48.908;9.140;2023-05-08T05:18:26;8.07;;;6.63;;
22983;SDS011;11658;48.908;9.140;2023-05-08T05:20:52;6.80;;;6.10;;
22983;SDS011;11658;48.908;9.140;2023-05-08T05:23:18;8.00;;;6.93;;
22983;SDS011;11658;48.908;9.140;2023-05-08T05:25:43;7.47;;;6.77;;
22983;SDS011;11658;48.908;9.140;2023-05-08T05:28:09;7.00;;;6.43;;
22983;SDS011;11658;48.908;9.140;2023-05-08T05:30:34;7.80;;;7.00;;
22983;SDS011;11658;48.908;9.140;2023-05-08T05:33:00;8.23;;;7.33;;
22983;SDS011;11658;48.908;9.140;2023-05-08T05:35:25;7.17;;;6.47;;
22983;SDS011;11658;48.908;9.140;2023-05-08T05:37:51;7.20;;;6.50;;
22983;SDS011;11658;48.908;9.140;2023-05-08T05:40:16;7.13;;;6.50;;
22983;SDS011;11658;48.908;9.140;2023-05-08T05:42:46;6.80;;;6.30;;
22983;SDS011;11658;48.908;9.140;2023-05-08T05:45:12;7.27;;;6.57;;
22983;SDS011;11658;48.908;9.140;2023-05-08T05:47:42;7.93;;;7.13;;
22983;SDS011;11658;48.908;9.140;2023-05-08T05:50:09;6.80;;;6.20;;
22983;SDS011;11658;48.908;9.140;2023-05-08T05:52:35;6.60;;;5.90;;
22983;SDS011;11658;48.908;9.140;2023-05-08T05:55:00;7.30;;;6.70;;
22983;SDS011;11658;48.908;9.140;2023-05-08T05:57:26;7.50;;;6.80;;
22983;SDS011;11658;48.908;9.140;2023-05-08T05:59:51;7.17;;;6.57;;
22983;SDS011;11658;48.908;9.140;2023-05-08T06:02:17;7.30;;;6.60;;
22983;SDS011;11658;48.908;9.140;2023-05-08T06:04:44;6.73;;;6.13;;
22983;SDS011;11658;48.908;9.140;2023-05-08T06:07:09;7.07;;;6.37;;
22983;SDS011;11658;48.908;9.140;2023-05-08T06:09:35;7.47;;;5.97;;
22983;SDS011;11658;48.908;9.140;2023-05-08T06:12:01;8.37;;;7.47;;
22983;SDS011;11658;48.908;9.140;2023-05-08T06:14:26;6.97;;;6.40;;
22983;SDS011;11658;48.908;9.140;2023-05-08T06:16:52;7.50;;;6.90;;
22983;SDS011;11658;48.908;9.140;2023-05-08T06:19:17;6.97;;;6.20;;
22983;SDS011;11658;48.908;9.140;2023-05-08T06:21:43;7.33;;;6.63;;
22983;SDS011;11658;48.908;9.140;2023-05-08T06:24:09;7.87;;;7.17;;
22983;SDS011;11658;48.908;9.140;2023-05-08T06:26:35;8.17;;;7.37;;
22983;SDS011;11658;48.908;9.140;2023-05-08T06:29:01;12.93;;;10.93;;
22983;SDS011;11658;48.908;9.140;2023-05-08T06:31:26;7.60;;;6.90;;
22983;SDS011;11658;48.908;9.140;2023-05-08T06:33:52;8.03;;;7.27;;
22983;SDS011;11658;48.908;9.140;2023-05-08T06:36:17;7.57;;;6.70;;
22983;SDS011;11658;48.908;9.140;2023-05-08T06:38:43;7.70;;;6.97;;
22983;SDS011;11658;48.908;9.140;2023-05-08T06:41:08;8.23;;;6.87;;
22983;SDS011;11658;48.908;9.140;2023-05-08T06:43:34;7.40;;;6.70;;
22983;SDS011;11658;48.908;9.140;2023-05-08T06:46:00;7.77;;;7.07;;
22983;SDS011;11658;48.908;9.140;2023-05-08T06:48:25;7.10;;;6.50;;
22983;SDS011;11658;48.908;9.140;2023-05-08T06:50:53;8.27;;;7.43;;
22983;SDS011;11658;48.908;9.140;2023-05-08T06:53:18;8.37;;;7.43;;
22983;SDS011;11658;48.908;9.140;2023-05-08T06:55:44;8.20;;;7.50;;
22983;SDS011;11658;48.908;9.140;2023-05-08T06:58:10;7.67;;;6.97;;
22983;SDS011;11658;48.908;9.140;2023-05-08T07:00:35;7.77;;;7.00;;
22983;SDS011;11658;48.908;9.140;2023-05-08T07:03:01;7.87;;;7.07;;
22983;SDS011;11658;48.908;9.140;2023-05-08T07:05:26;7.90;;;7.23;;
22983;SDS011;11658;48.908;9.140;2023-05-08T07:07:52;8.13;;;7.13;;
22983;SDS011;11658;48.908;9.140;2023-05-08T07:10:18;8.67;;;7.87;;
22983;SDS011;11658;48.908;9.140;2023-05-08T07:12:46;7.40;;;6.70;;
22983;SDS011;11658;48.908;9.140;2023-05-08T07:15:12;8.13;;;6.90;;
22983;SDS011;11658;48.908;9.140;2023-05-08T07:17:38;7.80;;;7.10;;
22983;SDS011;11658;48.908;9.140;2023-05-08T07:20:04;8.53;;;7.17;;
22983;SDS011;11658;48.908;9.140;2023-05-08T07:22:30;8.40;;;7.57;;
22983;SDS011;11658;48.908;9.140;2023-05-08T07:24:55;9.97;;;8.37;;
22983;SDS011;11658;48.908;9.140;2023-05-08T07:27:21;10.33;;;9.40;;
22983;SDS011;11658;48.908;9.140;2023-05-08T07:29:47;8.13;;;7.40;;
22983;SDS011;11658;48.908;9.140;2023-05-08T07:32:12;7.97;;;7.17;;
22983;SDS011;11658;48.908;9.140;2023-05-08T07:34:39;7.70;;;6.87;;
22983;SDS011;11658;48.908;9.140;2023-05-08T07:37:05;6.80;;;6.20;;
22983;SDS011;11658;48.908;9.140;2023-05-08T07:39:31;7.17;;;6.53;;
22983;SDS011;11658;48.908;9.140;2023-05-08T07:41:57;7.03;;;6.43;;
22983;SDS011;11658;48.908;9.140;2023-05-08T07:44:22;7.53;;;6.83;;
22983;SDS011;11658;48.908;9.140;2023-05-08T07:46:48;7.47;;;6.77;;
22983;SDS011;11658;48.908;9.140;2023-05-08T07:49:14;8.53;;;7.73;;
22983;SDS011;11658;48.908;9.140;2023-05-08T07:51:39;9.90;;;6.93;;
22983;SDS011;11658;48.908;9.140;2023-05-08T07:54:05;8.07;;;7.37;;
22983;SDS011;11658;48.908;9.140;2023-05-08T07:56:31;7.60;;;6.53;;
22983;SDS011;11658;48.908;9.140;2023-05-08T07:58:56;10.73;;;8.17;;
22983;SDS011;11658;48.908;9.140;2023-05-08T08:01:22;9.53;;;7.50;;
22983;SDS011;11658;48.908;9.140;2023-05-08T08:03:47;7.60;;;6.90;;
22983;SDS011;11658;48.908;9.140;2023-05-08T08:06:13;8.97;;;7.37;;
22983;SDS011;11658;48.908;9.140;2023-05-08T08:08:39;8.20;;;7.47;;
22983;SDS011;11658;48.908;9.140;2023-05-08T08:11:05;7.90;;;7.10;;
22983;SDS011;11658;48.908;9.140;2023-05-08T08:13:31;8.13;;;7.37;;
22983;SDS011;11658;48.908;9.140;2023-05-08T08:15:57;7.50;;;6.80;;
22983;SDS011;11658;48.908;9.140;2023-05-08T08:18:23;7.17;;;6.57;;
22983;SDS011;11658;48.908;9.140;2023-05-08T08:20:48;7.50;;;6.83;;
22983;SDS011;11658;48.908;9.140;2023-05-08T08:23:14;7.53;;;6.50;;
22983;SDS011;11658;48.908;9.140;2023-05-08T08:25:40;7.20;;;6.50;;
22983;SDS011;11658;48.908;9.140;2023-05-08T08:28:05;7.80;;;7.00;;
22983;SDS011;11658;48.908;9.140;2023-05-08T08:30:31;7.60;;;6.90;;
22983;SDS011;11658;48.908;9.140;2023-05-08T08:32:56;7.83;;;7.03;;
22983;SDS011;11658;48.908;9.140;2023-05-08T08:35:26;8.87;;;7.47;;
22983;SDS011;11658;48.908;9.140;2023-05-08T08:37:55;7.37;;;6.67;;
22983;SDS011;11658;48.908;9.140;2023-05-08T08:40:21;8.30;;;7.60;;
22983;SDS011;11658;48.908;9.140;2023-05-08T08:42:46;7.10;;;6.50;;
22983;SDS011;11658;48.908;9.140;2023-05-08T08:45:12;7.77;;;7.07;;
22983;SDS011;11658;48.908;9.140;2023-05-08T08:47:38;6.63;;;6.00;;
22983;SDS011;11658;48.908;9.140;2023-05-08T08:50:07;7.57;;;6.87;;
22983;SDS011;11658;48.908;9.140;2023-05-08T08:55:21;10.13;;;7.70;;
22983;SDS011;11658;48.908;9.140;2023-05-08T09:00:40;7.80;;;7.20;;
22983;SDS011;11658;48.908;9.140;2023-05-08T09:03:06;8.20;;;7.40;;
22983;SDS011;11658;48.908;9.140;2023-05-08T09:05:32;7.63;;;7.03;;
22983;SDS011;11658;48.908;9.140;2023-05-08T09:07:58;9.00;;;8.10;;
22983;SDS011;11658;48.908;9.140;2023-05-08T09:10:23;7.90;;;7.20;;
22983;SDS011;11658;48.908;9.140;2023-05-08T09:12:49;8.20;;;7.50;;
22983;SDS011;11658;48.908;9.140;2023-05-08T09:15:15;10.10;;;7.47;;
22983;SDS011;11658;48.908;9.140;2023-05-08T09:17:41;7.67;;;6.97;;
22983;SDS011;11658;48.908;9.140;2023-05-08T09:20:07;7.97;;;7.20;;
22983;SDS011;11658;48.908;9.140;2023-05-08T09:22:36;7.33;;;6.63;;
22983;SDS011;11658;48.908;9.140;2023-05-08T09:25:02;7.73;;;6.90;;
22983;SDS011;11658;48.908;9.140;2023-05-08T09:27:29;6.40;;;5.90;;
22983;SDS011;11658;48.908;9.140;2023-05-08T09:30:03;8.73;;;6.80;;
22983;SDS011;11658;48.908;9.140;2023-05-08T09:32:29;7.33;;;6.63;;
22983;SDS011;11658;48.908;9.140;2023-05-08T09:34:56;7.57;;;6.87;;
22983;SDS011;11658;48.908;9.140;2023-05-08T09:37:22;8.43;;;7.63;;
22983;SDS011;11658;48.908;9.140;2023-05-08T09:39:48;8.03;;;7.23;;
22983;SDS011;11658;48.908;9.140;2023-05-08T09:42:14;7.57;;;6.87;;
22983;SDS011;11658;48.908;9.140;2023-05-08T09:44:52;7.77;;;7.07;;
22983;SDS011;11658;48.908;9.140;2023-05-08T09:47:22;8.70;;;7.90;;
22983;SDS011;11658;48.908;9.140;2023-05-08T09:49:55;7.70;;;7.00;;
22983;SDS011;11658;48.908;9.140;2023-05-08T09:52:21;8.63;;;7.83;;
22983;SDS011;11658;48.908;9.140;2023-05-08T09:55:03;8.20;;;7.50;;
22983;SDS011;11658;48.908;9.140;2023-05-08T09:57:39;8.77;;;7.97;;
22983;SDS011;11658;48.908;9.140;2023-05-08T10:00:16;9.30;;;8.47;;
22983;SDS011;11658;48.908;9.140;2023-05-08T10:02:52;8.80;;;7.93;;
22983;SDS011;11658;48.908;9.140;2023-05-08T10:05:29;7.97;;;7.17;;
22983;SDS011;11658;48.908;9.140;2023-05-08T10:08:16;8.57;;;7.67;;
22983;SDS011;11658;48.908;9.140;2023-05-08T10:10:49;9.73;;;8.57;;
22983;SDS011;11658;48.908;9.140;2023-05-08T10:13:15;7.80;;;7.20;;
22983;SDS011;11658;48.908;9.140;2023-05-08T10:15:41;8.00;;;7.30;;
22983;SDS011;11658;48.908;9.140;2023-05-08T10:18:07;8.73;;;7.93;;
22983;SDS011;11658;48.908;9.140;2023-05-08T10:20:42;10.70;;;7.57;;
22983;SDS011;11658;48.908;9.140;2023-05-08T10:23:14;7.70;;;7.00;;
22983;SDS011;11658;48.908;9.140;2023-05-08T10:25:44;8.23;;;7.53;;
22983;SDS011;11658;48.908;9.140;2023-05-08T10:28:20;7.60;;;6.90;;
22983;SDS011;11658;48.908;9.140;2023-05-08T10:30:52;8.70;;;7.70;;
22983;SDS011;11658;48.908;9.140;2023-05-08T10:33:24;8.23;;;7.53;;
22983;SDS011;11658;48.908;9.140;2023-05-08T10:35:53;8.00;;;7.30;;
22983;SDS011;11658;48.908;9.140;2023-05-08T10:38:20;9.07;;;8.17;;
22983;SDS011;11658;48.908;9.140;2023-05-08T10:40:46;8.17;;;7.47;;
22983;SDS011;11658;48.908;9.140;2023-05-08T10:43:14;8.67;;;7.77;;
22983;SDS011;11658;48.908;9.140;2023-05-08T10:45:40;9.20;;;8.30;;
22983;SDS011;11658;48.908;9.140;2023-05-08T10:48:18;9.70;;;8.80;;
22983;SDS011;11658;48.908;9.140;2023-05-08T10:53:24;9.93;;;9.00;;
22983;SDS011;11658;48.908;9.140;2023-05-08T10:55:56;10.47;;;9.47;;
22983;SDS011;11658;48.908;9.140;2023-05-08T11:03:16;10.47;;;9.37;;
22983;SDS011;11658;48.908;9.140;2023-05-08T11:05:46;11.10;;;10.07;;
22983;SDS011;11658;48.908;9.140;2023-05-08T11:08:13;10.93;;;9.83;;
22983;SDS011;11658;48.908;9.140;2023-05-08T11:10:40;11.53;;;10.37;;
22983;SDS011;11658;48.908;9.140;2023-05-08T11:13:10;10.60;;;9.60;;
22983;SDS011;11658;48.908;9.140;2023-05-08T11:15:37;10.27;;;9.17;;
22983;SDS011;11658;48.908;9.140;2023-05-08T11:18:04;10.50;;;9.47;;
22983;SDS011;11658;48.908;9.140;2023-05-08T11:20:39;11.63;;;9.50;;
22983;SDS011;11658;48.908;9.140;2023-05-08T11:23:25;9.87;;;8.87;;
22983;SDS011;11658;48.908;9.140;2023-05-08T11:25:58;12.47;;;11.17;;
22983;SDS011;11658;48.908;9.140;2023-05-08T11:31:15;15.20;;;13.70;;
22983;SDS011;11658;48.908;9.140;2023-05-08T11:33:40;15.17;;;13.77;;
22983;SDS011;11658;48.908;9.140;2023-05-08T11:38:41;16.13;;;14.63;;
22983;SDS011;11658;48.908;9.140;2023-05-08T11:46:03;16.83;;;15.07;;
22983;SDS011;11658;48.908;9.140;2023-05-08T11:48:37;16.07;;;14.53;;
22983;SDS011;11658;48.908;9.140;2023-05-08T11:51:03;15.90;;;14.37;;
22983;SDS011;11658;48.908;9.140;2023-05-08T11:53:29;15.20;;;13.70;;
22983;SDS011;11658;48.908;9.140;2023-05-08T11:55:56;15.53;;;13.90;;
22983;SDS011;11658;48.908;9.140;2023-05-08T11:58:23;14.57;;;13.07;;
22983;SDS011;11658;48.908;9.140;2023-05-08T12:00:49;13.90;;;12.60;;
22983;SDS011;11658;48.908;9.140;2023-05-08T12:03:16;15.20;;;13.50;;
22983;SDS011;11658;48.908;9.140;2023-05-08T12:05:42;15.10;;;13.70;;
22983;SDS011;11658;48.908;9.140;2023-05-08T12:08:09;13.57;;;12.30;;
22983;SDS011;11658;48.908;9.140;2023-05-08T12:10:39;14.40;;;13.00;;
22983;SDS011;11658;48.908;9.140;2023-05-08T12:13:17;13.10;;;11.80;;
22983;SDS011;11658;48.908;9.140;2023-05-08T12:15:47;12.40;;;11.30;;
22983;SDS011;11658;48.908;9.140;2023-05-08T12:18:23;12.27;;;11.07;;
22983;SDS011;11658;48.908;9.140;2023-05-08T12:20:58;11.77;;;10.57;;
22983;SDS011;11658;48.908;9.140;2023-05-08T12:23:25;14.93;;;12.40;;
22983;SDS011;11658;48.908;9.140;2023-05-08T12:25:52;12.67;;;11.43;;
22983;SDS011;11658;48.908;9.140;2023-05-08T12:28:18;13.60;;;11.47;;
22983;SDS011;11658;48.908;9.140;2023-05-08T12:30:44;12.90;;;10.87;;
22983;SDS011;11658;48.908;9.140;2023-05-08T12:33:10;12.13;;;11.03;;
22983;SDS011;11658;48.908;9.140;2023-05-08T12:35:37;12.63;;;11.33;;
22983;SDS011;11658;48.908;9.140;2023-05-08T12:38:04;13.60;;;12.27;;
22983;SDS011;11658;48.908;9.140;2023-05-08T12:40:32;13.37;;;11.97;;
22983;SDS011;11658;48.908;9.140;2023-05-08T12:43:00;12.87;;;11.67;;
22983;SDS011;11658;48.908;9.140;2023-05-08T12:45:28;13.50;;;12.00;;
22983;SDS011;11658;48.908;9.140;2023-05-08T12:47:59;13.43;;;12.17;;
22983;SDS011;11658;48.908;9.140;2023-05-08T12:50:26;14.00;;;12.73;;
22983;SDS011;11658;48.908;9.140;2023-05-08T12:52:54;14.70;;;13.23;;
22983;SDS011;11658;48.908;9.140;2023-05-08T12:55:27;13.40;;;12.10;;
22983;SDS011;11658;48.908;9.140;2023-05-08T12:57:58;15.20;;;13.70;;
22983;SDS011;11658;48.908;9.140;2023-05-08T13:01:02;14.40;;;12.97;;
22983;SDS011;11658;48.908;9.140;2023-05-08T13:03:28;17.47;;;15.67;;
22983;SDS011;11658;48.908;9.140;2023-05-08T13:05:54;16.47;;;14.83;;
22983;SDS011;11658;48.908;9.140;2023-05-08T13:08:29;15.63;;;14.13;;
22983;SDS011;11658;48.908;9.140;2023-05-08T13:10:56;16.70;;;15.00;;
22983;SDS011;11658;48.908;9.140;2023-05-08T13:13:23;16.57;;;14.97;;
22983;SDS011;11658;48.908;9.140;2023-05-08T13:15:51;16.43;;;14.73;;
22983;SDS011;11658;48.908;9.140;2023-05-08T13:18:18;16.13;;;14.63;;
22983;SDS011;11658;48.908;9.140;2023-05-08T13:20:44;16.17;;;14.60;;
22983;SDS011;11658;48.908;9.140;2023-05-08T13:23:10;13.63;;;12.17;;
22983;SDS011;11658;48.908;9.140;2023-05-08T13:25:37;12.97;;;11.60;;
22983;SDS011;11658;48.908;9.140;2023-05-08T13:28:04;13.67;;;12.27;;
22983;SDS011;11658;48.908;9.140;2023-05-08T13:30:31;13.57;;;12.27;;
22983;SDS011;11658;48.908;9.140;2023-05-08T13:32:57;12.67;;;11.47;;
22983;SDS011;11658;48.908;9.140;2023-05-08T13:35:23;13.00;;;11.70;;
22983;SDS011;11658;48.908;9.140;2023-05-08T13:37:49;12.07;;;10.93;;
22983;SDS011;11658;48.908;9.140;2023-05-08T13:40:15;11.80;;;10.70;;
22983;SDS011;11658;48.908;9.140;2023-05-08T13:42:41;11.50;;;10.30;;
22983;SDS011;11658;48.908;9.140;2023-05-08T13:45:07;12.30;;;11.00;;
22983;SDS011;11658;48.908;9.140;2023-05-08T13:47:34;12.60;;;11.50;;
22983;SDS011;11658;48.908;9.140;2023-05-08T13:50:00;12.50;;;11.20;;
22983;SDS011;11658;48.908;9.140;2023-05-08T13:52:26;11.27;;;10.17;;
22983;SDS011;11658;48.908;9.140;2023-05-08T13:54:54;12.67;;;11.50;;
22983;SDS011;11658;48.908;9.140;2023-05-08T13:57:20;13.93;;;11.33;;
22983;SDS011;11658;48.908;9.140;2023-05-08T13:59:46;12.57;;;11.37;;
22983;SDS011;11658;48.908;9.140;2023-05-08T14:02:11;12.80;;;11.43;;
22983;SDS011;11658;48.908;9.140;2023-05-08T14:04:38;13.00;;;11.80;;
22983;SDS011;11658;48.908;9.140;2023-05-08T14:07:04;13.90;;;12.10;;
22983;SDS011;11658;48.908;9.140;2023-05-08T14:09:30;13.03;;;11.70;;
22983;SDS011;11658;48.908;9.140;2023-05-08T14:11:55;12.17;;;10.97;;
22983;SDS011;11658;48.908;9.140;2023-05-08T14:14:21;12.40;;;11.20;;
22983;SDS011;11658;48.908;9.140;2023-05-08T14:16:47;12.83;;;11.53;;
22983;SDS011;11658;48.908;9.140;2023-05-08T14:19:12;13.47;;;12.07;;
22983;SDS011;11658;48.908;9.140;2023-05-08T14:21:38;14.00;;;12.63;;
22983;SDS011;11658;48.908;9.140;2023-05-08T14:24:04;14.10;;;12.70;;
22983;SDS011;11658;48.908;9.140;2023-05-08T14:26:30;14.20;;;12.80;;
22983;SDS011;11658;48.908;9.140;2023-05-08T14:28:56;15.07;;;13.53;;
22983;SDS011;11658;48.908;9.140;2023-05-08T14:31:21;14.07;;;12.60;;
22983;SDS011;11658;48.908;9.140;2023-05-08T14:33:47;16.07;;;14.20;;
22983;SDS011;11658;48.908;9.140;2023-05-08T14:36:12;14.93;;;13.30;;
22983;SDS011;11658;48.908;9.140;2023-05-08T14:38:38;14.70;;;13.30;;
22983;SDS011;11658;48.908;9.140;2023-05-08T14:41:03;15.07;;;13.63;;
22983;SDS011;11658;48.908;9.140;2023-05-08T14:43:29;15.50;;;14.00;;
22983;SDS011;11658;48.908;9.140;2023-05-08T14:45:54;16.47;;;14.77;;
22983;SDS011;11658;48.908;9.140;2023-05-08T14:48:20;15.80;;;14.23;;
22983;SDS011;11658;48.908;9.140;2023-05-08T14:50:45;17.23;;;15.53;;
22983;SDS011;11658;48.908;9.140;2023-05-08T14:53:11;15.83;;;14.43;;
22983;SDS011;11658;48.908;9.140;2023-05-08T14:55:37;15.70;;;14.20;;
22983;SDS011;11658;48.908;9.140;2023-05-08T14:58:02;16.07;;;14.47;;
22983;SDS011;11658;48.908;9.140;2023-05-08T15:00:28;16.20;;;14.50;;
22983;SDS011;11658;48.908;9.140;2023-05-08T15:02:54;15.53;;;14.03;;
22983;SDS011;11658;48.908;9.140;2023-05-08T15:05:19;16.37;;;14.03;;
22983;SDS011;11658;48.908;9.140;2023-05-08T15:07:45;16.67;;;14.33;;
22983;SDS011;11658;48.908;9.140;2023-05-08T15:10:11;15.53;;;14.03;;
22983;SDS011;11658;48.908;9.140;2023-05-08T15:12:36;15.57;;;14.03;;
22983;SDS011;11658;48.908;9.140;2023-05-08T15:15:02;14.73;;;13.23;;
22983;SDS011;11658;48.908;9.140;2023-05-08T15:17:28;15.80;;;14.30;;
22983;SDS011;11658;48.908;9.140;2023-05-08T15:19:53;15.77;;;14.10;;
22983;SDS011;11658;48.908;9.140;2023-05-08T15:22:19;14.63;;;13.13;;
22983;SDS011;11658;48.908;9.140;2023-05-08T15:24:44;13.87;;;12.37;;
22983;SDS011;11658;48.908;9.140;2023-05-08T15:27:10;13.80;;;12.43;;
22983;SDS011;11658;48.908;9.140;2023-05-08T15:29:35;13.43;;;12.23;;
22983;SDS011;11658;48.908;9.140;2023-05-08T15:32:03;12.33;;;11.17;;
22983;SDS011;11658;48.908;9.140;2023-05-08T15:34:29;12.40;;;10.83;;
22983;SDS011;11658;48.908;9.140;2023-05-08T15:36:55;12.67;;;10.70;;
22983;SDS011;11658;48.908;9.140;2023-05-08T15:39:20;12.57;;;11.27;;
22983;SDS011;11658;48.908;9.140;2023-05-08T15:41:46;10.93;;;9.93;;
22983;SDS011;11658;48.908;9.140;2023-05-08T15:44:12;11.77;;;10.67;;
22983;SDS011;11658;48.908;9.140;2023-05-08T15:46:38;10.47;;;9.47;;
22983;SDS011;11658;48.908;9.140;2023-05-08T15:49:03;11.23;;;10.07;;
22983;SDS011;11658;48.908;9.140;2023-05-08T15:51:29;9.50;;;8.53;;
22983;SDS011;11658;48.908;9.140;2023-05-08T15:53:55;9.70;;;8.80;;
22983;SDS011;11658;48.908;9.140;2023-05-08T15:56:21;10.97;;;9.70;;
22983;SDS011;11658;48.908;9.140;2023-05-08T15:58:50;9.60;;;8.70;;
22983;SDS011;11658;48.908;9.140;2023-05-08T16:01:16;11.33;;;9.90;;
22983;SDS011;11658;48.908;9.140;2023-05-08T16:03:42;9.90;;;8.90;;
22983;SDS011;11658;48.908;9.140;2023-05-08T16:06:08;10.60;;;9.00;;
22983;SDS011;11658;48.908;9.140;2023-05-08T16:08:34;10.40;;;9.40;;
22983;SDS011;11658;48.908;9.140;2023-05-08T16:10:59;10.00;;;9.10;;
22983;SDS011;11658;48.908;9.140;2023-05-08T16:13:25;9.63;;;8.63;;
22983;SDS011;11658;48.908;9.140;2023-05-08T16:15:51;10.73;;;8.50;;
22983;SDS011;11658;48.908;9.140;2023-05-08T16:18:17;10.40;;;9.40;;
22983;SDS011;11658;48.908;9.140;2023-05-08T16:20:42;10.17;;;9.27;;
22983;SDS011;11658;48.908;9.140;2023-05-08T16:23:08;10.83;;;9.73;;
22983;SDS011;11658;48.908;9.140;2023-05-08T16:25:34;12.23;;;11.10;;
22983;SDS011;11658;48.908;9.140;2023-05-08T16:27:59;13.57;;;12.17;;
22983;SDS011;11658;48.908;9.140;2023-05-08T16:30:25;13.93;;;12.67;;
22983;SDS011;11658;48.908;9.140;2023-05-08T16:32:50;13.83;;;12.43;;
22983;SDS011;11658;48.908;9.140;2023-05-08T16:35:16;14.50;;;13.10;;
22983;SDS011;11658;48.908;9.140;2023-05-08T16:37:43;12.93;;;11.83;;
22983;SDS011;11658;48.908;9.140;2023-05-08T16:40:09;15.13;;;12.40;;
22983;SDS011;11658;48.908;9.140;2023-05-08T16:42:35;14.00;;;12.60;;
22983;SDS011;11658;48.908;9.140;2023-05-08T16:45:04;13.83;;;12.50;;
22983;SDS011;11658;48.908;9.140;2023-05-08T16:47:31;13.67;;;12.37;;
22983;SDS011;11658;48.908;9.140;2023-05-08T16:49:58;14.33;;;13.00;;
22983;SDS011;11658;48.908;9.140;2023-05-08T16:52:23;14.60;;;13.27;;
22983;SDS011;11658;48.908;9.140;2023-05-08T16:54:49;14.80;;;13.37;;
22983;SDS011;11658;48.908;9.140;2023-05-08T16:57:15;14.60;;;13.27;;
22983;SDS011;11658;48.908;9.140;2023-05-08T16:59:41;15.37;;;13.97;;
22983;SDS011;11658;48.908;9.140;2023-05-08T17:02:06;15.03;;;13.60;;
22983;SDS011;11658;48.908;9.140;2023-05-08T17:04:32;14.93;;;13.63;;
22983;SDS011;11658;48.908;9.140;2023-05-08T17:06:57;15.73;;;14.23;;
22983;SDS011;11658;48.908;9.140;2023-05-08T17:09:24;15.07;;;13.57;;
22983;SDS011;11658;48.908;9.140;2023-05-08T17:11:51;15.80;;;14.30;;
22983;SDS011;11658;48.908;9.140;2023-05-08T17:14:17;15.87;;;14.33;;
22983;SDS011;11658;48.908;9.140;2023-05-08T17:16:43;16.33;;;14.93;;
22983;SDS011;11658;48.908;9.140;2023-05-08T17:19:08;15.27;;;13.77;;
22983;SDS011;11658;48.908;9.140;2023-05-08T17:21:34;15.77;;;14.00;;
22983;SDS011;11658;48.908;9.140;2023-05-08T17:23:59;15.80;;;14.27;;
22983;SDS011;11658;48.908;9.140;2023-05-08T17:26:25;16.07;;;13.07;;
22983;SDS011;11658;48.908;9.140;2023-05-08T17:28:51;13.17;;;11.97;;
22983;SDS011;11658;48.908;9.140;2023-05-08T17:31:17;13.80;;;12.50;;
22983;SDS011;11658;48.908;9.140;2023-05-08T17:33:43;13.83;;;12.53;;
22983;SDS011;11658;48.908;9.140;2023-05-08T17:36:08;13.60;;;12.30;;
22983;SDS011;11658;48.908;9.140;2023-05-08T17:38:34;11.50;;;10.50;;
22983;SDS011;11658;48.908;9.140;2023-05-08T17:41:02;12.13;;;11.03;;
22983;SDS011;11658;48.908;9.140;2023-05-08T17:43:27;11.67;;;10.67;;
22983;SDS011;11658;48.908;9.140;2023-05-08T17:45:55;12.97;;;11.80;;
22983;SDS011;11658;48.908;9.140;2023-05-08T17:48:21;12.27;;;11.17;;
22983;SDS011;11658;48.908;9.140;2023-05-08T17:50:47;12.13;;;11.07;;
22983;SDS011;11658;48.908;9.140;2023-05-08T17:53:12;12.67;;;11.37;;
22983;SDS011;11658;48.908;9.140;2023-05-08T17:55:38;12.93;;;11.63;;
22983;SDS011;11658;48.908;9.140;2023-05-08T17:58:03;12.37;;;11.17;;
22983;SDS011;11658;48.908;9.140;2023-05-08T18:00:29;12.93;;;11.77;;
22983;SDS011;11658;48.908;9.140;2023-05-08T18:02:54;12.27;;;11.07;;
22983;SDS011;11658;48.908;9.140;2023-05-08T18:05:20;11.50;;;10.50;;
22983;SDS011;11658;48.908;9.140;2023-05-08T18:07:46;12.50;;;11.30;;